createdAt,value
2017-08-17T00:01:48.049Z,95.64
2017-08-17T00:04:15.493Z,96.12
2017-08-17T00:06:42.965Z,96.32
2017-08-17T00:09:10.414Z,96.46
2017-08-17T00:11:37.889Z,96.23
2017-08-17T00:14:05.333Z,95.83
2017-08-17T00:16:32.782Z,96.71
2017-08-17T00:19:00.274Z,96.97
2017-08-17T00:21:27.730Z,96.66
2017-08-17T00:23:55.214Z,96.57
2017-08-17T00:26:22.665Z,97.05
2017-08-17T00:28:50.113Z,96.98
2017-08-17T00:31:17.576Z,97.70
2017-08-17T00:33:45.041Z,97.50
2017-08-17T00:36:12.507Z,97.04
2017-08-17T00:38:39.982Z,96.90
2017-08-17T00:41:07.462Z,97.18
2017-08-17T00:43:34.909Z,97.40
2017-08-17T00:46:02.354Z,98.14
2017-08-17T00:48:29.828Z,98.30
2017-08-17T00:50:57.277Z,98.05
2017-08-17T00:53:24.833Z,98.36
2017-08-17T00:55:52.315Z,98.22
2017-08-17T00:58:19.765Z,98.34
2017-08-17T01:00:47.702Z,98.71
2017-08-17T01:03:15.169Z,98.61
2017-08-17T01:05:42.622Z,98.62
2017-08-17T01:08:10.089Z,98.74
2017-08-17T01:10:37.537Z,99.58
2017-08-17T01:13:05.009Z,98.81
2017-08-17T01:15:32.495Z,98.21
2017-08-17T01:17:59.945Z,98.18
2017-08-17T01:20:27.422Z,97.74
2017-08-17T01:22:54.869Z,98.36
2017-08-17T01:25:22.336Z,98.63
2017-08-17T01:27:49.865Z,99.10
2017-08-17T01:30:17.323Z,99.13
2017-08-17T01:32:44.813Z,99.99
2017-08-17T01:35:12.260Z,99.91
2017-08-17T01:37:39.704Z,100.00
2017-08-17T01:40:07.168Z,99.19
2017-08-17T01:42:34.623Z,99.12
2017-08-17T01:45:02.098Z,99.18
2017-08-17T01:47:29.547Z,99.49
2017-08-17T01:49:57.002Z,99.49
2017-08-17T01:52:24.469Z,99.19
2017-08-17T01:54:52.245Z,98.87
2017-08-17T01:57:19.721Z,99.33
2017-08-17T01:59:47.177Z,99.49
2017-08-17T02:02:14.664Z,99.81
2017-08-17T02:04:42.121Z,99.66
2017-08-17T02:07:09.593Z,99.84
2017-08-17T02:09:37.082Z,100.00
2017-08-17T02:12:04.538Z,99.34
2017-08-17T02:14:32.016Z,98.80
2017-08-17T02:16:59.467Z,99.63
2017-08-17T02:19:26.938Z,99.97
2017-08-17T02:21:54.392Z,100.00
2017-08-17T02:24:21.846Z,100.00
2017-08-17T02:26:49.316Z,100.00
2017-08-17T02:29:16.780Z,99.98
2017-08-17T02:31:44.234Z,99.53
2017-08-17T02:34:11.718Z,100.00
2017-08-17T02:36:39.169Z,100.00
2017-08-17T02:39:06.651Z,99.64
2017-08-17T02:41:34.096Z,99.85
2017-08-17T02:44:01.556Z,100.00
2017-08-17T02:46:29.025Z,99.97
2017-08-17T02:48:56.472Z,99.97
2017-08-17T02:51:23.945Z,99.38
2017-08-17T02:53:51.406Z,99.54
2017-08-17T02:56:18.879Z,99.96
2017-08-17T02:58:46.329Z,99.36
2017-08-17T03:01:13.778Z,99.84
2017-08-17T03:03:41.245Z,99.82
2017-08-17T03:06:08.702Z,99.75
2017-08-17T03:08:36.176Z,100.00
2017-08-17T03:11:03.624Z,100.00
2017-08-17T03:13:31.065Z,100.00
2017-08-17T03:15:58.541Z,100.00
2017-08-17T03:18:25.985Z,100.00
2017-08-17T03:20:53.433Z,100.00
2017-08-17T03:23:20.902Z,98.37
2017-08-17T03:25:48.347Z,99.03
2017-08-17T03:28:15.816Z,94.78
2017-08-17T03:30:43.261Z,92.19
2017-08-17T03:33:10.745Z,96.47
2017-08-17T03:35:38.195Z,94.95
2017-08-17T03:38:05.650Z,92.62
2017-08-17T03:40:33.117Z,90.87
2017-08-17T03:43:00.566Z,92.95
2017-08-17T03:45:28.037Z,90.18
2017-08-17T03:47:55.489Z,92.17
2017-08-17T03:50:22.936Z,90.18
2017-08-17T03:52:50.419Z,88.58
2017-08-17T03:55:17.870Z,90.49
2017-08-17T03:57:45.333Z,94.32
2017-08-17T04:00:12.773Z,96.08
2017-08-17T04:02:40.244Z,97.37
2017-08-17T04:05:07.709Z,97.16
2017-08-17T04:07:35.166Z,96.81
2017-08-17T04:10:02.625Z,97.17
2017-08-17T04:12:30.079Z,97.31
2017-08-17T04:14:57.548Z,97.48
2017-08-17T04:17:25.012Z,97.92
2017-08-17T04:19:52.465Z,97.31
2017-08-17T04:22:19.932Z,96.98
2017-08-17T04:24:47.381Z,96.34
2017-08-17T04:27:14.848Z,96.49
2017-08-17T04:29:42.293Z,96.37
2017-08-17T04:32:09.757Z,95.45
2017-08-17T04:34:37.241Z,96.29
2017-08-17T04:37:04.693Z,98.16
2017-08-17T04:39:32.147Z,97.72
2017-08-17T04:41:59.623Z,95.66
2017-08-17T04:44:27.069Z,96.60
2017-08-17T04:46:54.523Z,96.56
2017-08-17T04:49:21.989Z,97.06
2017-08-17T04:51:49.454Z,97.73
2017-08-17T04:54:16.905Z,96.36
2017-08-17T04:57:01.824Z,97.08
2017-08-17T04:59:29.265Z,94.86
2017-08-17T05:01:56.706Z,96.73
2017-08-17T05:04:24.172Z,96.50
2017-08-17T05:06:51.622Z,96.05
2017-08-17T05:09:19.093Z,95.40
2017-08-17T05:11:46.544Z,94.94
2017-08-17T05:14:13.990Z,93.78
2017-08-17T05:16:41.457Z,93.51
2017-08-17T05:19:08.903Z,93.48
2017-08-17T05:21:36.376Z,92.38
2017-08-17T05:24:03.820Z,93.04
2017-08-17T05:26:31.290Z,92.27
2017-08-17T05:28:58.744Z,91.54
2017-08-17T05:31:26.194Z,91.62
2017-08-17T05:33:53.662Z,91.49
2017-08-17T05:36:21.130Z,92.30
2017-08-17T05:38:48.594Z,91.15
2017-08-17T05:41:16.050Z,91.58
2017-08-17T05:43:43.532Z,91.59
2017-08-17T05:46:11.009Z,90.29
2017-08-17T05:48:38.494Z,90.39
2017-08-17T05:51:05.944Z,90.06
2017-08-17T05:53:33.393Z,89.54
2017-08-17T05:56:00.864Z,88.77
2017-08-17T05:58:28.316Z,88.85
2017-08-17T06:00:55.795Z,88.61
2017-08-17T06:03:23.253Z,87.12
2017-08-17T06:05:50.733Z,86.73
2017-08-17T06:08:18.187Z,87.84
2017-08-17T06:10:45.649Z,85.71
2017-08-17T06:13:13.136Z,86.82
2017-08-17T06:15:40.614Z,86.50
2017-08-17T06:18:08.071Z,85.90
2017-08-17T06:20:35.529Z,85.14
2017-08-17T06:23:03.002Z,83.94
2017-08-17T06:25:30.451Z,83.43
2017-08-17T06:27:57.905Z,84.45
2017-08-17T06:30:25.385Z,84.74
2017-08-17T06:32:52.825Z,85.13
2017-08-17T06:35:20.481Z,84.82
2017-08-17T06:37:47.935Z,84.99
2017-08-17T06:40:15.433Z,83.58
2017-08-17T06:42:42.878Z,83.37
2017-08-17T06:45:10.322Z,83.24
2017-08-17T06:47:37.788Z,84.01
2017-08-17T06:50:05.258Z,82.82
2017-08-17T06:52:32.706Z,83.98
2017-08-17T06:55:00.165Z,82.83
2017-08-17T06:57:27.626Z,82.61
2017-08-17T06:59:55.081Z,81.47
2017-08-17T07:02:22.546Z,82.04
2017-08-17T07:04:50.013Z,81.81
2017-08-17T07:07:17.489Z,81.62
2017-08-17T07:09:44.944Z,81.70
2017-08-17T07:12:12.414Z,81.59
2017-08-17T07:14:39.888Z,80.60
2017-08-17T07:17:07.357Z,79.56
2017-08-17T07:19:34.817Z,79.27
2017-08-17T07:22:02.260Z,78.92
2017-08-17T07:24:29.720Z,78.45
2017-08-17T07:26:57.342Z,78.23
2017-08-17T07:29:24.777Z,77.63
2017-08-17T07:31:52.222Z,78.50
2017-08-17T07:34:19.704Z,76.63
2017-08-17T07:36:47.158Z,77.75
2017-08-17T07:39:14.609Z,77.45
2017-08-17T07:41:42.077Z,76.28
2017-08-17T07:44:09.548Z,76.00
2017-08-17T07:46:37.011Z,76.30
2017-08-17T07:49:04.448Z,76.04
2017-08-17T07:51:31.922Z,74.79
2017-08-17T07:53:59.362Z,73.60
2017-08-17T07:56:26.824Z,73.91
2017-08-17T07:58:54.276Z,72.41
2017-08-17T08:01:21.763Z,73.41
2017-08-17T08:03:49.229Z,72.40
2017-08-17T08:06:16.686Z,72.43
2017-08-17T08:08:44.149Z,72.29
2017-08-17T08:11:11.617Z,71.44
2017-08-17T08:13:39.054Z,71.80
2017-08-17T08:16:06.498Z,71.79
2017-08-17T08:18:33.966Z,71.27
2017-08-17T08:21:01.433Z,71.51
2017-08-17T08:23:28.896Z,69.99
2017-08-17T08:25:56.340Z,68.89
2017-08-17T08:28:23.811Z,69.63
2017-08-17T08:30:51.286Z,68.22
2017-08-17T08:33:18.725Z,69.71
2017-08-17T08:35:46.202Z,68.60
2017-08-17T08:38:13.654Z,69.21
2017-08-17T08:40:41.100Z,67.91
2017-08-17T08:43:08.589Z,68.02
2017-08-17T08:45:36.042Z,68.80
2017-08-17T08:48:03.520Z,68.50
2017-08-17T08:50:30.977Z,70.25
2017-08-17T08:52:58.449Z,68.58
2017-08-17T08:55:25.895Z,68.49
2017-08-17T08:57:53.365Z,67.29
2017-08-17T09:00:20.835Z,67.55
2017-08-17T09:02:48.281Z,66.88
2017-08-17T09:05:15.766Z,66.01
2017-08-17T09:07:43.209Z,66.38
2017-08-17T09:10:10.664Z,65.76
2017-08-17T09:12:38.154Z,65.87
2017-08-17T09:15:05.603Z,64.15
2017-08-17T09:17:33.048Z,66.49
2017-08-17T09:20:00.517Z,65.29
2017-08-17T09:22:27.965Z,63.90
2017-08-17T09:24:55.418Z,63.45
2017-08-17T09:27:22.881Z,66.00
2017-08-17T09:29:50.346Z,62.59
2017-08-17T09:32:17.796Z,62.91
2017-08-17T09:34:45.265Z,63.16
2017-08-17T09:37:12.719Z,62.21
2017-08-17T09:39:40.184Z,61.77
2017-08-17T09:42:07.634Z,62.27
2017-08-17T09:44:35.109Z,62.00
2017-08-17T09:47:02.589Z,62.99
2017-08-17T09:49:30.041Z,62.13
2017-08-17T09:51:57.493Z,61.06
2017-08-17T09:54:24.976Z,59.39
2017-08-17T09:56:52.435Z,62.46
2017-08-17T09:59:19.896Z,61.92
2017-08-17T10:01:47.359Z,61.92
2017-08-17T10:04:14.837Z,59.32
2017-08-17T10:06:42.298Z,59.07
2017-08-17T10:09:09.753Z,59.30
2017-08-17T10:11:37.217Z,58.21
2017-08-17T10:14:04.658Z,59.13
2017-08-17T10:16:32.125Z,58.96
2017-08-17T10:18:59.593Z,57.81
2017-08-17T10:21:27.042Z,60.98
2017-08-17T10:23:54.517Z,55.50
2017-08-17T10:26:21.977Z,54.74
2017-08-17T10:28:49.449Z,55.69
2017-08-17T10:31:16.921Z,56.34
2017-08-17T10:33:44.363Z,57.25
2017-08-17T10:36:11.815Z,55.44
2017-08-17T10:38:39.293Z,57.18
2017-08-17T10:41:06.754Z,53.87
2017-08-17T10:43:34.239Z,53.21
2017-08-17T10:46:01.709Z,53.56
2017-08-17T10:48:29.182Z,52.71
2017-08-17T10:50:56.624Z,54.43
2017-08-17T10:53:24.088Z,51.86
2017-08-17T10:55:51.550Z,51.94
2017-08-17T10:58:19.014Z,50.63
2017-08-17T11:00:46.485Z,52.74
2017-08-17T11:03:13.937Z,55.81
2017-08-17T11:05:41.413Z,51.28
2017-08-17T11:08:08.877Z,53.24
2017-08-17T11:10:36.323Z,52.94
2017-08-17T11:13:03.798Z,52.01
2017-08-17T11:15:31.248Z,48.65
2017-08-17T11:17:58.696Z,47.33
2017-08-17T11:20:26.175Z,45.33
2017-08-17T11:22:53.615Z,48.82
2017-08-17T11:25:21.089Z,49.66
2017-08-17T11:27:48.557Z,50.71
2017-08-17T11:30:16.026Z,50.65
2017-08-17T11:32:43.498Z,49.58
2017-08-17T11:35:10.956Z,44.76
2017-08-17T11:37:38.408Z,49.18
2017-08-17T11:40:05.870Z,46.96
2017-08-17T11:42:33.310Z,46.69
2017-08-17T11:45:00.785Z,39.49
2017-08-17T11:47:28.225Z,42.85
2017-08-17T11:49:55.686Z,45.09
2017-08-17T11:52:23.158Z,42.39
2017-08-17T11:54:50.615Z,41.08
2017-08-17T11:57:18.057Z,39.23
2017-08-17T11:59:45.525Z,39.49
2017-08-17T12:02:12.972Z,40.07
2017-08-17T12:04:40.419Z,41.10
2017-08-17T12:07:07.885Z,38.31
2017-08-17T12:09:35.331Z,37.68
2017-08-17T12:12:02.831Z,39.06
2017-08-17T12:14:30.273Z,38.67
2017-08-17T12:16:57.716Z,32.12
2017-08-17T12:19:25.188Z,32.23
2017-08-17T12:21:52.684Z,33.11
2017-08-17T12:24:20.134Z,30.40
2017-08-17T12:26:47.605Z,29.95
2017-08-17T12:29:15.041Z,33.27
2017-08-17T12:31:42.486Z,33.52
2017-08-17T12:34:09.950Z,33.65
2017-08-17T12:36:37.397Z,30.12
2017-08-17T12:39:04.877Z,29.35
2017-08-17T12:41:32.345Z,30.10
2017-08-17T12:43:59.801Z,26.97
2017-08-17T12:46:27.269Z,30.84
2017-08-17T12:48:54.713Z,32.29
2017-08-17T12:51:22.163Z,35.60
2017-08-17T12:53:49.632Z,34.03
2017-08-17T12:56:17.102Z,30.84
2017-08-17T12:58:44.540Z,28.23
2017-08-17T13:01:11.998Z,35.36
2017-08-17T13:03:39.466Z,35.39
2017-08-17T13:06:06.921Z,35.17
2017-08-17T13:08:34.388Z,37.63
2017-08-17T13:11:02.157Z,33.58
2017-08-17T13:13:29.633Z,32.39
2017-08-17T13:15:57.077Z,36.10
2017-08-17T13:18:24.551Z,35.75
2017-08-17T13:20:52.000Z,35.98
2017-08-17T13:23:19.467Z,37.74
2017-08-17T13:25:46.914Z,36.85
2017-08-17T13:28:14.387Z,34.69
2017-08-17T13:30:41.851Z,39.58
2017-08-17T13:33:09.302Z,37.77
2017-08-17T13:35:36.773Z,34.16
2017-08-17T13:38:04.213Z,36.64
2017-08-17T13:40:31.666Z,33.56
2017-08-17T13:42:59.156Z,36.29
2017-08-17T13:45:26.593Z,33.87
2017-08-17T13:47:54.047Z,38.14
2017-08-17T13:50:21.514Z,35.27
2017-08-17T13:52:48.967Z,34.51
2017-08-17T13:55:16.433Z,34.34
2017-08-17T13:57:43.881Z,32.79
2017-08-17T14:00:11.326Z,30.80
2017-08-17T14:02:38.818Z,33.74
2017-08-17T14:05:06.262Z,36.35
2017-08-17T14:07:33.725Z,36.78
2017-08-17T14:10:01.195Z,34.67
2017-08-17T14:12:28.670Z,32.81
2017-08-17T14:14:56.113Z,36.00
2017-08-17T14:17:23.588Z,37.93
2017-08-17T14:19:51.053Z,35.69
2017-08-17T14:22:18.497Z,35.52
2017-08-17T14:24:45.971Z,38.60
2017-08-17T14:27:13.414Z,36.94
2017-08-17T14:29:40.869Z,35.79
2017-08-17T14:32:08.332Z,36.82
2017-08-17T14:34:35.781Z,41.82
2017-08-17T14:37:03.259Z,35.02
2017-08-17T14:39:30.706Z,39.52
2017-08-17T14:41:58.186Z,35.70
2017-08-17T14:44:25.629Z,36.81
2017-08-17T14:46:53.081Z,38.32
2017-08-17T14:49:20.545Z,37.20
2017-08-17T14:51:48.022Z,36.69
2017-08-17T14:54:15.473Z,35.27
2017-08-17T14:56:42.937Z,34.54
2017-08-17T14:59:10.382Z,32.05
2017-08-17T15:01:37.857Z,36.17
2017-08-17T15:04:05.305Z,31.84
2017-08-17T15:06:32.749Z,31.88
2017-08-17T15:09:00.221Z,30.38
2017-08-17T15:11:27.692Z,31.77
2017-08-17T15:13:55.144Z,31.92
2017-08-17T15:16:22.629Z,30.04
2017-08-17T15:18:50.097Z,32.91
2017-08-17T15:21:17.545Z,35.21
2017-08-17T15:23:44.987Z,29.37
2017-08-17T15:26:12.445Z,30.64
2017-08-17T15:28:39.898Z,32.40
2017-08-17T15:31:07.377Z,29.11
2017-08-17T15:33:34.823Z,27.37
2017-08-17T15:36:02.265Z,28.91
2017-08-17T15:38:29.736Z,29.68
2017-08-17T15:40:57.210Z,31.76
2017-08-17T15:43:24.672Z,28.38
2017-08-17T15:45:52.141Z,29.19
2017-08-17T15:48:19.625Z,27.72
2017-08-17T15:50:47.069Z,29.73
2017-08-17T15:53:14.513Z,28.98
2017-08-17T15:55:41.987Z,35.37
2017-08-17T15:58:09.436Z,30.25
2017-08-17T16:00:36.914Z,33.29
2017-08-17T16:03:04.838Z,30.05
2017-08-17T16:05:32.329Z,30.54
2017-08-17T16:07:59.837Z,31.88
2017-08-17T16:10:27.289Z,32.28
2017-08-17T16:12:56.044Z,28.97
2017-08-17T16:15:23.490Z,30.00
2017-08-17T16:17:50.947Z,29.41
2017-08-17T16:20:18.466Z,28.35
2017-08-17T16:22:45.916Z,28.81
2017-08-17T16:25:13.361Z,28.98
2017-08-17T16:27:40.845Z,27.00
2017-08-17T16:30:08.299Z,30.76
2017-08-17T16:32:36.607Z,28.76
2017-08-17T16:35:04.570Z,33.32
2017-08-17T16:37:32.041Z,31.70
2017-08-17T16:39:59.499Z,30.76
2017-08-17T16:42:26.976Z,34.64
2017-08-17T16:44:55.018Z,32.75
2017-08-17T16:47:22.469Z,34.09
2017-08-17T16:49:49.989Z,34.89
2017-08-17T16:52:17.446Z,37.25
2017-08-17T16:54:45.673Z,37.45
2017-08-17T16:57:13.556Z,40.19
2017-08-17T16:59:41.024Z,38.99
2017-08-17T17:02:08.486Z,38.72
2017-08-17T17:04:35.955Z,41.08
2017-08-17T17:07:03.400Z,40.64
2017-08-17T17:09:30.874Z,40.00
2017-08-17T17:11:58.930Z,39.39
2017-08-17T17:14:26.383Z,38.80
2017-08-17T17:16:55.101Z,37.76
2017-08-17T17:19:22.687Z,40.39
2017-08-17T17:22:18.231Z,40.16
2017-08-17T17:24:45.693Z,41.40
2017-08-17T17:27:13.165Z,42.32
2017-08-17T17:29:40.637Z,41.75
2017-08-17T17:32:08.253Z,41.13
2017-08-17T17:34:35.698Z,39.17
2017-08-17T17:37:03.947Z,39.69
2017-08-17T17:39:31.425Z,41.35
2017-08-17T17:41:58.883Z,41.20
2017-08-17T17:44:26.363Z,39.48
2017-08-17T17:46:53.829Z,40.81
2017-08-17T17:49:21.925Z,41.21
2017-08-17T17:51:49.392Z,43.69
2017-08-17T17:54:16.863Z,46.62
2017-08-17T17:56:44.327Z,47.96
2017-08-17T17:59:11.817Z,48.59
2017-08-17T18:01:39.288Z,49.02
2017-08-17T18:04:06.736Z,48.80
2017-08-17T18:06:34.221Z,51.50
2017-08-17T18:09:01.681Z,51.36
2017-08-17T18:11:29.139Z,53.01
2017-08-17T18:13:56.610Z,54.05
2017-08-17T18:16:24.053Z,54.12
2017-08-17T18:18:51.529Z,54.88
2017-08-17T18:21:18.981Z,58.24
2017-08-17T18:23:46.424Z,59.10
2017-08-17T18:26:13.904Z,58.53
2017-08-17T18:28:41.344Z,59.03
2017-08-17T18:31:08.817Z,56.09
2017-08-17T18:33:36.263Z,59.19
2017-08-17T18:36:03.720Z,57.76
2017-08-17T18:38:31.193Z,58.40
2017-08-17T18:40:58.669Z,57.08
2017-08-17T18:43:26.114Z,58.13
2017-08-17T18:45:53.597Z,59.17
2017-08-17T18:48:21.073Z,59.34
2017-08-17T18:50:48.540Z,59.30
2017-08-17T18:53:16.029Z,60.83
2017-08-17T18:55:43.480Z,61.40
2017-08-17T18:58:10.946Z,61.98
2017-08-17T19:00:38.421Z,62.24
2017-08-17T19:03:05.901Z,62.50
2017-08-17T19:05:33.373Z,62.24
2017-08-17T19:08:00.820Z,62.91
2017-08-17T19:10:28.289Z,63.52
2017-08-17T19:12:55.742Z,64.38
2017-08-17T19:15:23.202Z,64.02
2017-08-17T19:17:50.653Z,63.55
2017-08-17T19:20:18.127Z,64.25
2017-08-17T19:22:45.986Z,64.38
2017-08-17T19:25:13.457Z,64.30
2017-08-17T19:27:41.476Z,64.54
2017-08-17T19:30:08.971Z,64.29
2017-08-17T19:32:36.466Z,64.08
2017-08-17T19:35:04.412Z,64.16
2017-08-17T19:37:31.853Z,65.18
2017-08-17T19:39:59.328Z,65.09
2017-08-17T19:42:26.775Z,65.83
2017-08-17T19:44:55.024Z,66.66
2017-08-17T19:47:22.500Z,66.57
2017-08-17T19:49:49.944Z,67.69
2017-08-17T19:52:17.500Z,67.45
2017-08-17T19:54:45.030Z,67.21
2017-08-17T19:57:12.826Z,67.30
2017-08-17T19:59:40.501Z,67.19
2017-08-17T20:02:08.284Z,67.37
2017-08-17T20:04:35.767Z,67.76
2017-08-17T20:07:03.216Z,67.28
2017-08-17T20:09:30.683Z,66.92
2017-08-17T20:11:58.182Z,66.85
2017-08-17T20:14:26.084Z,66.99
2017-08-17T20:16:53.528Z,67.86
2017-08-17T20:19:20.998Z,69.41
2017-08-17T20:21:48.645Z,69.84
2017-08-17T20:24:16.107Z,69.44
2017-08-17T20:26:43.550Z,69.14
2017-08-17T20:29:11.002Z,69.43
2017-08-17T20:31:38.640Z,69.87
2017-08-17T20:34:06.110Z,69.77
2017-08-17T20:36:33.613Z,69.36
2017-08-17T20:39:01.394Z,71.25
2017-08-17T20:41:28.916Z,74.21
2017-08-17T20:43:56.364Z,74.17
2017-08-17T20:46:23.849Z,72.07
2017-08-17T20:48:51.401Z,72.74
2017-08-17T20:51:18.933Z,72.80
2017-08-17T20:53:46.401Z,73.10
2017-08-17T20:56:13.881Z,72.10
2017-08-17T20:58:41.325Z,73.10
2017-08-17T21:01:08.777Z,71.10
2017-08-17T21:03:36.260Z,71.53
2017-08-17T21:06:03.713Z,72.07
2017-08-17T21:08:31.186Z,71.27
2017-08-17T21:10:58.625Z,71.06
2017-08-17T21:13:26.080Z,71.06
2017-08-17T21:15:53.548Z,72.75
2017-08-17T21:18:21.022Z,71.92
2017-08-17T21:20:48.469Z,73.60
2017-08-17T21:23:15.915Z,72.25
2017-08-17T21:25:43.389Z,71.98
2017-08-17T21:28:10.836Z,73.36
2017-08-17T21:30:38.287Z,76.15
2017-08-17T21:33:06.012Z,74.47
2017-08-17T21:35:33.480Z,73.47
2017-08-17T21:38:00.928Z,71.33
2017-08-17T21:40:28.398Z,74.96
2017-08-17T21:42:55.857Z,75.20
2017-08-17T21:45:23.306Z,76.28
2017-08-17T21:47:50.778Z,77.46
2017-08-17T21:50:18.230Z,77.92
2017-08-17T21:52:45.676Z,78.68
2017-08-17T21:55:13.153Z,79.08
2017-08-17T21:57:40.589Z,78.62
2017-08-17T22:02:34.823Z,77.94
2017-08-17T22:05:02.284Z,77.17
2017-08-17T22:07:29.732Z,76.99
2017-08-17T22:09:57.208Z,78.67
2017-08-17T22:12:24.661Z,81.43
2017-08-17T22:14:52.120Z,81.13
2017-08-17T22:17:19.597Z,79.51
2017-08-17T22:19:47.045Z,80.87
2017-08-17T22:22:14.507Z,81.27
2017-08-17T22:24:41.982Z,81.85
2017-08-17T22:27:09.439Z,81.51
2017-08-17T22:29:36.920Z,81.52
2017-08-17T22:32:04.361Z,81.32
2017-08-17T22:34:31.813Z,82.14
2017-08-17T22:36:59.277Z,82.68
2017-08-17T22:39:26.723Z,81.30
2017-08-17T22:41:54.193Z,80.84
2017-08-17T22:44:21.639Z,81.00
2017-08-17T22:46:49.116Z,81.35
2017-08-17T22:49:16.588Z,83.12
2017-08-17T22:51:44.060Z,83.71
2017-08-17T22:54:11.500Z,83.98
2017-08-17T22:56:38.964Z,84.17
2017-08-17T22:59:06.401Z,84.83
2017-08-17T23:01:33.878Z,85.30
2017-08-17T23:04:01.326Z,85.02
2017-08-17T23:06:28.793Z,84.98
2017-08-17T23:08:56.266Z,85.30
2017-08-17T23:11:23.735Z,85.24
2017-08-17T23:13:51.176Z,85.67
2017-08-17T23:16:18.644Z,85.42
2017-08-17T23:18:46.090Z,84.48
2017-08-17T23:21:13.541Z,85.02
2017-08-17T23:23:41.024Z,85.09
2017-08-17T23:26:08.460Z,85.03
2017-08-17T23:28:35.916Z,85.32
2017-08-17T23:31:03.388Z,85.54
2017-08-17T23:33:30.830Z,85.08
2017-08-17T23:35:58.277Z,84.94
2017-08-17T23:38:25.748Z,85.97
2017-08-17T23:40:53.208Z,86.29
2017-08-17T23:43:20.668Z,86.52
2017-08-17T23:45:48.136Z,87.72
2017-08-17T23:48:15.592Z,87.95
2017-08-17T23:50:43.068Z,87.12
2017-08-17T23:53:10.514Z,87.50
2017-08-17T23:55:38.134Z,86.52
2017-08-17T23:58:05.605Z,87.19
